Time;durP1;ratioP1;P1;durP2;ratioP2;P2;SDS_P1;SDS_P2;PMS_P1;PMS_P2;Temp;Humidity;BMP_temperature;BMP_pressure;BME280_temperature;BME280_humidity;BME280_pressure;Samples;Min_cycle;Max_cycle;Signal;HPM_P1;HPM_P2
2022/07/18 00:02:22;;;;;;;4.72;1.80;;;20.30;99.90;;;;;;5075986;28;20033;-59
2022/07/18 00:04:47;;;;;;;3.67;1.70;;;20.20;99.90;;;;;;5077031;28;20036;-59
2022/07/18 00:07:13;;;;;;;2.65;1.80;;;20.20;99.90;;;;;;5075989;28;20040;-59
2022/07/18 00:09:39;;;;;;;2.97;1.52;;;20.10;99.90;;;;;;5076638;28;20032;-59
2022/07/18 00:12:07;;;;;;;2.70;1.70;;;20.10;99.90;;;;;;5076708;28;20396;-59
2022/07/18 00:14:34;;;;;;;4.28;1.90;;;20.10;99.90;;;;;;5076636;28;20301;-60
2022/07/18 00:17:00;;;;;;;2.75;1.63;;;20.10;99.90;;;;;;5075866;28;20029;-59
2022/07/18 00:19:27;;;;;;;3.70;1.92;;;20.00;99.90;;;;;;5076673;28;20033;-59
2022/07/18 00:21:53;;;;;;;2.20;1.58;;;19.90;99.90;;;;;;5076842;28;20045;-60
2022/07/18 00:24:19;;;;;;;3.33;1.45;;;19.90;99.90;;;;;;5076658;28;20029;-59
2022/07/18 00:26:45;;;;;;;2.80;1.73;;;19.90;99.90;;;;;;5076440;28;20052;-58
2022/07/18 00:29:11;;;;;;;3.60;1.80;;;19.80;99.90;;;;;;5076962;28;20036;-59
2022/07/18 00:31:37;;;;;;;3.78;1.90;;;19.80;99.90;;;;;;5075748;28;20115;-58
2022/07/18 00:34:03;;;;;;;4.18;1.67;;;19.80;99.90;;;;;;5076480;28;20062;-58
2022/07/18 00:36:29;;;;;;;5.22;1.90;;;19.70;99.90;;;;;;5076485;28;20073;-58
2022/07/18 00:38:55;;;;;;;4.82;1.85;;;19.70;99.90;;;;;;5076348;28;20368;-58
2022/07/18 00:41:21;;;;;;;3.67;1.70;;;19.70;99.90;;;;;;5076503;28;20086;-57
2022/07/18 00:43:47;;;;;;;3.47;1.83;;;19.60;99.90;;;;;;5076450;28;20037;-58
2022/07/18 00:46:13;;;;;;;2.33;1.63;;;19.50;99.90;;;;;;5076353;28;20032;-58
2022/07/18 00:48:40;;;;;;;3.00;1.80;;;19.50;99.90;;;;;;5076358;28;20301;-60
2022/07/18 00:51:07;;;;;;;4.05;1.70;;;19.50;99.90;;;;;;5076316;28;20111;-59
2022/07/18 00:53:33;;;;;;;3.00;1.80;;;19.50;99.90;;;;;;5076285;28;20047;-58
2022/07/18 00:56:02;;;;;;;2.65;1.70;;;19.50;99.90;;;;;;5076122;28;20106;-58
2022/07/18 00:58:28;;;;;;;2.95;1.40;;;19.40;99.90;;;;;;5076230;28;20266;-58
2022/07/18 01:03:39;;;;;;;3.97;1.80;;;19.30;99.90;;;;;;5079830;28;20109;-58
2022/07/18 01:06:05;;;;;;;3.83;1.95;;;19.30;99.90;;;;;;5079833;28;20044;-58
2022/07/18 01:08:32;;;;;;;5.25;1.95;;;19.20;99.90;;;;;;5078942;28;20093;-58
2022/07/18 01:10:58;;;;;;;3.53;1.90;;;19.20;99.90;;;;;;5080024;28;20517;-58
2022/07/18 01:13:24;;;;;;;3.35;1.90;;;19.20;99.90;;;;;;5079734;28;20063;-59
2022/07/18 01:15:50;;;;;;;4.38;1.60;;;19.10;99.90;;;;;;5079717;28;20087;-59
2022/07/18 01:18:16;;;;;;;2.67;1.60;;;19.20;99.90;;;;;;5079738;28;20071;-59
2022/07/18 01:20:42;;;;;;;3.22;1.45;;;19.10;99.90;;;;;;5079667;28;20430;-59
2022/07/18 01:23:08;;;;;;;2.97;1.60;;;19.20;99.90;;;;;;5079622;28;20036;-59
2022/07/18 01:25:34;;;;;;;2.92;1.45;;;19.30;99.90;;;;;;5079465;28;20040;-59
2022/07/18 01:28:00;;;;;;;3.72;1.80;;;19.20;99.90;;;;;;5079530;28;20043;-58
2022/07/18 01:30:26;;;;;;;3.78;1.50;;;19.10;99.90;;;;;;5079454;28;20384;-58
2022/07/18 01:33:00;;;;;;;2.47;1.40;;;19.00;99.90;;;;;;5078722;28;20029;-59
2022/07/18 01:35:27;;;;;;;4.75;1.83;;;19.00;99.90;;;;;;5079324;28;20032;-59
2022/07/18 01:37:55;;;;;;;2.97;1.60;;;19.00;99.90;;;;;;5079433;28;20059;-59
2022/07/18 01:40:22;;;;;;;4.53;1.80;;;18.90;99.90;;;;;;5079208;28;20039;-58
2022/07/18 01:42:48;;;;;;;3.88;1.80;;;19.00;99.90;;;;;;5079231;28;20025;-58
2022/07/18 01:45:15;;;;;;;5.80;1.85;;;18.90;99.90;;;;;;5079167;28;20060;-58
2022/07/18 01:47:41;;;;;;;3.85;1.70;;;18.90;99.90;;;;;;5078932;28;20040;-59
2022/07/18 01:50:09;;;;;;;2.40;1.52;;;18.90;99.90;;;;;;5078979;28;20032;-58
2022/07/18 01:52:35;;;;;;;3.55;1.70;;;18.80;99.90;;;;;;5078971;28;20142;-58
2022/07/18 01:55:01;;;;;;;2.58;1.42;;;18.80;99.90;;;;;;5078944;28;20032;-58
2022/07/18 01:57:27;;;;;;;2.58;1.30;;;18.80;99.90;;;;;;5078849;28;20144;-58
2022/07/18 01:59:52;;;;;;;3.58;1.80;;;18.70;99.90;;;;;;5078924;28;20123;-58
2022/07/18 02:02:18;;;;;;;5.07;1.58;;;18.70;99.90;;;;;;5078815;28;20033;-58
2022/07/18 02:04:59;;;;;;;3.22;1.70;;;18.70;99.90;;;;;;5078746;28;20060;-58
2022/07/18 02:07:34;;;;;;;3.97;1.63;;;18.60;99.90;;;;;;5078717;28;20040;-59
2022/07/18 02:10:01;;;;;;;4.57;1.85;;;18.70;99.90;;;;;;5078676;28;20029;-59
2022/07/18 02:12:27;;;;;;;3.97;1.65;;;18.60;99.90;;;;;;5078314;28;20056;-59
2022/07/18 02:14:53;;;;;;;2.55;1.83;;;18.50;99.90;;;;;;5078595;28;20082;-59
2022/07/18 02:17:19;;;;;;;4.10;1.70;;;18.40;99.90;;;;;;5078617;28;20041;-58
2022/07/18 02:19:45;;;;;;;4.22;1.40;;;18.40;99.90;;;;;;5078598;28;20356;-59
2022/07/18 02:22:11;;;;;;;3.38;1.75;;;18.40;99.90;;;;;;5078426;28;20085;-59
2022/07/18 02:24:37;;;;;;;4.22;1.80;;;18.40;99.90;;;;;;5078490;28;20028;-58
2022/07/18 02:27:03;;;;;;;4.20;1.63;;;18.40;99.90;;;;;;5078197;28;20110;-58
2022/07/18 02:29:29;;;;;;;5.70;1.90;;;18.40;99.90;;;;;;5078309;28;20043;-59
2022/07/18 02:31:56;;;;;;;4.28;2.10;;;18.40;99.90;;;;;;5078220;28;20053;-58
2022/07/18 02:34:22;;;;;;;4.25;1.92;;;18.40;99.90;;;;;;5078186;28;20020;-57
2022/07/18 02:36:50;;;;;;;4.28;1.95;;;18.40;99.90;;;;;;5077434;28;20043;-58
2022/07/18 02:39:16;;;;;;;7.10;2.47;;;18.30;99.90;;;;;;5078004;28;20036;-58
2022/07/18 02:41:43;;;;;;;4.55;2.00;;;18.30;99.90;;;;;;5060612;28;20116;-58
2022/07/18 02:44:08;;;;;;;3.88;2.05;;;18.40;99.90;;;;;;5078036;28;20059;-58
2022/07/18 02:46:34;;;;;;;3.17;2.03;;;18.30;99.90;;;;;;5077874;28;20060;-59
2022/07/18 02:49:00;;;;;;;4.70;1.90;;;18.20;99.90;;;;;;5077845;28;20273;-58
2022/07/18 02:51:27;;;;;;;3.63;2.25;;;18.20;99.90;;;;;;5077887;28;20040;-58
2022/07/18 02:53:52;;;;;;;3.92;2.17;;;18.20;99.90;;;;;;5077127;28;20024;-59
2022/07/18 02:56:18;;;;;;;3.58;2.00;;;18.10;99.90;;;;;;5077593;28;20056;-59
2022/07/18 02:58:44;;;;;;;3.38;1.80;;;18.10;99.90;;;;;;5077750;28;20051;-59
2022/07/18 03:01:10;;;;;;;4.85;1.88;;;18.10;99.90;;;;;;5077950;28;20036;-58
2022/07/18 03:03:36;;;;;;;3.75;2.13;;;18.10;99.90;;;;;;5076849;28;20123;-58
2022/07/18 03:06:01;;;;;;;4.13;2.05;;;18.10;99.90;;;;;;5077830;28;20304;-59
2022/07/18 03:08:27;;;;;;;6.38;2.30;;;18.00;99.90;;;;;;5077492;28;20040;-59
2022/07/18 03:10:53;;;;;;;3.10;2.20;;;18.00;99.90;;;;;;5077506;28;20127;-59
2022/07/18 03:13:19;;;;;;;3.75;2.13;;;18.00;99.90;;;;;;5077390;28;20043;-59
2022/07/18 03:15:44;;;;;;;5.78;2.65;;;18.00;99.90;;;;;;5076666;28;20040;-58
2022/07/18 03:18:10;;;;;;;3.67;2.17;;;18.00;99.90;;;;;;5077903;28;20024;-59
2022/07/18 03:20:36;;;;;;;5.93;2.35;;;17.90;99.90;;;;;;5077799;28;20036;-59
2022/07/18 03:23:06;;;;;;;5.13;2.20;;;17.90;99.90;;;;;;5077294;28;20029;-58
2022/07/18 03:25:32;;;;;;;4.10;2.03;;;17.90;99.90;;;;;;5076520;28;20059;-59
2022/07/18 03:27:58;;;;;;;6.90;2.10;;;18.00;99.90;;;;;;5077142;28;20020;-59
2022/07/18 03:30:24;;;;;;;4.00;2.28;;;17.90;99.90;;;;;;5077609;28;20151;-58
2022/07/18 03:32:49;;;;;;;3.38;2.28;;;17.90;99.90;;;;;;5077082;28;20028;-60
2022/07/18 03:35:15;;;;;;;4.97;2.03;;;17.90;99.90;;;;;;5077404;28;20040;-58
2022/07/18 03:37:41;;;;;;;5.78;2.30;;;17.90;99.90;;;;;;5076343;28;20036;-59
2022/07/18 03:40:08;;;;;;;5.63;2.22;;;17.90;99.90;;;;;;5076943;28;20036;-58
2022/07/18 03:42:37;;;;;;;5.38;2.38;;;17.90;99.90;;;;;;5076772;28;20067;-58
2022/07/18 03:45:04;;;;;;;5.68;2.22;;;17.90;99.90;;;;;;5076614;28;20033;-58
2022/07/18 03:47:30;;;;;;;6.35;2.45;;;17.90;99.90;;;;;;5076834;28;20020;-58
2022/07/18 03:49:55;;;;;;;4.38;2.30;;;17.90;99.90;;;;;;5076980;28;20032;-58
2022/07/18 03:52:21;;;;;;;4.97;2.42;;;17.90;99.90;;;;;;5076878;28;20052;-58
2022/07/18 03:54:47;;;;;;;4.18;1.85;;;17.90;99.90;;;;;;5076873;28;20297;-58
2022/07/18 03:57:13;;;;;;;2.85;1.80;;;17.90;99.90;;;;;;5076671;28;20213;-58
2022/07/18 03:59:39;;;;;;;3.72;2.30;;;17.80;99.90;;;;;;5076691;28;20032;-58
2022/07/18 04:02:04;;;;;;;5.70;2.08;;;17.70;99.90;;;;;;5076679;28;20052;-59
2022/07/18 04:04:30;;;;;;;5.22;2.17;;;17.80;99.90;;;;;;5076725;28;20339;-58
2022/07/18 04:06:59;;;;;;;4.95;2.35;;;17.90;99.90;;;;;;5076709;28;20033;-58
2022/07/18 04:09:26;;;;;;;6.80;2.42;;;17.90;99.90;;;;;;5076522;28;20039;-58
2022/07/18 04:11:51;;;;;;;3.30;2.42;;;17.80;99.90;;;;;;5076664;28;20358;-59
2022/07/18 04:14:17;;;;;;;3.95;2.13;;;17.80;99.90;;;;;;5076666;28;20040;-59
2022/07/18 04:16:43;;;;;;;3.95;2.00;;;17.70;99.90;;;;;;5076660;28;20499;-59
2022/07/18 04:19:09;;;;;;;4.32;2.30;;;17.70;99.90;;;;;;5076655;28;20048;-58
2022/07/18 04:21:35;;;;;;;5.22;2.35;;;17.60;99.90;;;;;;5076678;28;20300;-59
2022/07/18 04:24:01;;;;;;;5.85;2.42;;;17.70;99.90;;;;;;5076599;28;20032;-59
2022/07/18 04:26:27;;;;;;;4.63;2.05;;;17.70;99.90;;;;;;5076691;28;20032;-59
2022/07/18 04:28:53;;;;;;;5.68;2.30;;;17.70;99.90;;;;;;5076844;28;20320;-59
2022/07/18 04:31:19;;;;;;;4.15;1.95;;;17.60;99.90;;;;;;5076515;28;20029;-59
2022/07/18 04:33:44;;;;;;;3.90;2.13;;;17.60;99.90;;;;;;5076726;28;20359;-58
2022/07/18 04:36:11;;;;;;;5.18;2.30;;;17.60;99.90;;;;;;5079054;28;20052;-58
2022/07/18 04:38:37;;;;;;;6.88;2.70;;;17.60;99.90;;;;;;5080663;28;20044;-59
2022/07/18 04:41:04;;;;;;;4.18;2.10;;;17.60;99.90;;;;;;5080542;28;20067;-59
2022/07/18 04:43:30;;;;;;;4.90;2.00;;;17.60;99.90;;;;;;5080292;28;20039;-59
2022/07/18 04:45:56;;;;;;;5.43;2.60;;;17.60;99.90;;;;;;5080109;28;20036;-59
2022/07/18 04:48:22;;;;;;;2.95;2.00;;;17.60;99.90;;;;;;5080071;28;20041;-58
2022/07/18 04:50:48;;;;;;;5.55;2.35;;;17.60;99.90;;;;;;5079455;28;20406;-59
2022/07/18 04:53:13;;;;;;;4.75;2.35;;;17.60;99.90;;;;;;5080534;28;20032;-58
2022/07/18 04:55:39;;;;;;;2.95;2.38;;;17.60;99.90;;;;;;5080076;28;20045;-58
2022/07/18 04:58:05;;;;;;;4.20;2.33;;;17.70;99.90;;;;;;5080060;28;20044;-58
2022/07/18 05:00:31;;;;;;;4.63;2.30;;;17.80;99.90;;;;;;5080452;28;20037;-58
2022/07/18 05:02:57;;;;;;;8.77;2.70;;;17.80;99.90;;;;;;5079859;28;20104;-58
2022/07/18 05:05:26;;;;;;;4.93;2.25;;;17.80;99.90;;;;;;5079851;28;20029;-58
2022/07/18 05:07:52;;;;;;;5.95;2.83;;;17.90;99.90;;;;;;5080262;28;20064;-59
2022/07/18 05:10:19;;;;;;;6.22;2.50;;;18.00;99.90;;;;;;5079773;28;20044;-58
2022/07/18 05:12:49;;;;;;;8.40;2.53;;;18.10;99.90;;;;;;5079782;28;20052;-58
2022/07/18 05:15:17;;;;;;;5.35;2.55;;;18.20;99.90;;;;;;5079779;28;20048;-58
2022/07/18 05:17:44;;;;;;;6.07;2.20;;;18.20;99.90;;;;;;5079664;28;20062;-58
2022/07/18 05:20:13;;;;;;;4.07;2.25;;;18.30;99.90;;;;;;5079562;28;20068;-58
2022/07/18 05:22:39;;;;;;;4.10;2.50;;;18.40;99.90;;;;;;5079632;28;20345;-58
2022/07/18 05:25:06;;;;;;;3.90;2.38;;;18.40;99.90;;;;;;5078876;28;20040;-58
2022/07/18 05:27:32;;;;;;;5.80;2.50;;;18.50;99.90;;;;;;5079590;28;20316;-58
2022/07/18 05:29:58;;;;;;;4.50;2.70;;;18.60;99.90;;;;;;5079500;28;20051;-58
2022/07/18 05:32:25;;;;;;;6.90;2.50;;;18.60;99.90;;;;;;5079375;28;20031;-58
2022/07/18 05:34:51;;;;;;;3.33;2.60;;;18.70;99.90;;;;;;5079438;28;20327;-58
2022/07/18 05:37:17;;;;;;;7.28;2.67;;;18.80;99.90;;;;;;5079549;28;20051;-59
2022/07/18 05:39:43;;;;;;;8.88;2.33;;;18.90;99.90;;;;;;5079298;28;20032;-58
2022/07/18 05:42:09;;;;;;;6.18;2.40;;;19.00;99.90;;;;;;5079415;28;20037;-59
2022/07/18 05:44:35;;;;;;;5.32;2.20;;;19.20;99.90;;;;;;5078721;28;20048;-58
2022/07/18 05:47:01;;;;;;;6.60;2.65;;;19.20;99.90;;;;;;5078473;28;20072;-59
2022/07/18 05:49:27;;;;;;;4.88;2.80;;;19.20;99.90;;;;;;5078384;28;20039;-59
2022/07/18 05:51:54;;;;;;;3.60;2.08;;;19.40;99.90;;;;;;5061872;28;20033;-59
2022/07/18 05:54:20;;;;;;;5.22;2.72;;;19.50;99.90;;;;;;5061992;28;20029;-61
2022/07/18 05:56:50;;;;;;;3.53;2.10;;;19.60;99.90;;;;;;5078878;28;20068;-59
2022/07/18 05:59:17;;;;;;;5.15;2.38;;;19.70;99.90;;;;;;5078157;28;20408;-59
2022/07/18 06:01:47;;;;;;;5.82;2.78;;;19.80;99.90;;;;;;5078269;28;20036;-59
2022/07/18 06:04:13;;;;;;;7.40;2.63;;;19.90;99.90;;;;;;5078973;28;20043;-60
2022/07/18 06:06:40;;;;;;;8.32;2.83;;;20.00;99.90;;;;;;5077866;28;20451;-58
2022/07/18 06:09:08;;;;;;;9.25;2.70;;;20.20;99.90;;;;;;5078687;28;20029;-58
2022/07/18 06:11:34;;;;;;;5.68;2.00;;;20.20;99.90;;;;;;5077961;28;20032;-59
2022/07/18 06:14:02;;;;;;;6.82;2.25;;;20.30;99.90;;;;;;5078606;28;20043;-58
2022/07/18 06:16:29;;;;;;;8.48;2.30;;;20.30;99.90;;;;;;5078365;28;20053;-59
2022/07/18 06:18:56;;;;;;;6.25;2.35;;;20.50;99.90;;;;;;5078850;28;20051;-59
2022/07/18 06:21:22;;;;;;;3.67;1.73;;;20.60;99.90;;;;;;5078543;28;20033;-60
2022/07/18 06:23:47;;;;;;;5.20;2.47;;;20.70;99.90;;;;;;5078358;28;20274;-58
2022/07/18 06:26:13;;;;;;;4.93;2.28;;;20.70;99.90;;;;;;5078284;28;20110;-59
2022/07/18 06:28:39;;;;;;;5.18;2.10;;;20.80;99.90;;;;;;5078595;28;20066;-58
2022/07/18 06:31:05;;;;;;;3.63;2.05;;;20.90;99.90;;;;;;5077478;28;20395;-58
2022/07/18 06:33:31;;;;;;;3.00;2.00;;;20.90;99.90;;;;;;5078318;28;20024;-58
2022/07/18 06:35:57;;;;;;;7.10;2.40;;;21.00;99.90;;;;;;5078168;28;20036;-59
2022/07/18 06:38:22;;;;;;;6.72;2.13;;;21.00;99.90;;;;;;5077486;28;20037;-58
2022/07/18 06:40:48;;;;;;;4.38;2.00;;;21.00;99.90;;;;;;5077972;28;20419;-59
2022/07/18 06:43:19;;;;;;;5.07;2.25;;;21.00;99.90;;;;;;5078027;28;20081;-60
2022/07/18 06:45:47;;;;;;;6.57;2.20;;;21.10;99.90;;;;;;5077954;28;20036;-60
2022/07/18 06:48:15;;;;;;;6.57;2.08;;;21.00;99.90;;;;;;5077952;28;20079;-60
2022/07/18 06:50:41;;;;;;;6.75;2.08;;;21.00;99.90;;;;;;5077879;28;20035;-60
2022/07/18 06:53:07;;;;;;;5.50;2.10;;;21.10;99.90;;;;;;5077844;28;20032;-60
2022/07/18 06:55:33;;;;;;;5.30;1.70;;;21.10;99.90;;;;;;5077593;28;20103;-62
2022/07/18 06:57:58;;;;;;;4.15;1.85;;;21.30;99.90;;;;;;5078361;28;20040;-61
2022/07/18 07:00:24;;;;;;;7.25;2.55;;;21.60;99.90;;;;;;5076799;28;20038;-63
2022/07/18 07:02:50;;;;;;;4.30;1.95;;;21.60;99.90;;;;;;5078268;28;20086;-63
2022/07/18 07:05:18;;;;;;;3.95;2.00;;;21.60;99.90;;;;;;5077841;28;20028;-63
2022/07/18 07:07:45;;;;;;;4.28;2.03;;;21.60;99.90;;;;;;5077530;28;20032;-63
2022/07/18 07:10:11;;;;;;;5.00;2.00;;;21.80;99.90;;;;;;5077584;28;20039;-63
2022/07/18 07:12:51;;;;;;;7.93;2.00;;;21.90;99.90;;;;;;5077512;28;20016;-62
2022/07/18 07:15:19;;;;;;;4.25;2.00;;;22.10;99.90;;;;;;5077739;28;20028;-63
2022/07/18 07:17:45;;;;;;;8.48;2.30;;;22.20;99.90;;;;;;5077335;28;20124;-63
2022/07/18 07:20:12;;;;;;;7.13;2.40;;;22.30;99.90;;;;;;5077392;28;20115;-63
2022/07/18 07:22:55;;;;;;;10.00;2.35;;;22.30;99.90;;;;;;5077320;28;20037;-63
2022/07/18 07:25:23;;;;;;;7.30;1.85;;;22.30;99.90;;;;;;5077360;28;20263;-63
2022/07/18 07:27:49;;;;;;;5.68;2.20;;;22.30;99.90;;;;;;5077136;28;20115;-62
2022/07/18 07:30:15;;;;;;;6.68;2.00;;;22.20;99.90;;;;;;5076585;28;20107;-64
2022/07/18 07:32:43;;;;;;;9.77;2.00;;;22.30;99.90;;;;;;5077173;28;20120;-63
2022/07/18 07:35:11;;;;;;;2.83;1.90;;;22.50;99.90;;;;;;5077110;28;20423;-63
2022/07/18 07:37:38;;;;;;;11.10;2.47;;;22.90;99.90;;;;;;5077121;28;20063;-64
2022/07/18 07:40:05;;;;;;;5.90;2.13;;;23.00;99.90;;;;;;5077095;28;20028;-64
2022/07/18 07:42:30;;;;;;;4.22;1.83;;;23.00;99.90;;;;;;5077106;28;20040;-64
2022/07/18 07:44:56;;;;;;;3.50;1.92;;;23.20;99.90;;;;;;5077008;28;20423;-64
2022/07/18 07:47:22;;;;;;;5.50;1.77;;;23.30;99.90;;;;;;5076079;28;20041;-64
2022/07/18 07:49:48;;;;;;;5.20;1.85;;;23.20;99.90;;;;;;5076982;28;20136;-63
2022/07/18 07:52:14;;;;;;;9.52;2.50;;;23.20;99.90;;;;;;5077113;28;20111;-64
2022/07/18 07:54:40;;;;;;;7.28;2.20;;;23.40;99.90;;;;;;5076832;28;20021;-64
2022/07/18 07:57:06;;;;;;;5.05;1.77;;;23.70;99.90;;;;;;5076765;28;20056;-63
2022/07/18 07:59:32;;;;;;;5.95;2.33;;;23.80;99.90;;;;;;5076986;28;20029;-64
2022/07/18 08:01:59;;;;;;;5.57;1.88;;;24.00;99.90;;;;;;5076848;28;20154;-64
2022/07/18 08:04:25;;;;;;;6.95;2.00;;;24.10;99.90;;;;;;5076670;28;20024;-64
2022/07/18 08:06:51;;;;;;;6.53;2.45;;;24.00;99.90;;;;;;5075878;28;20358;-63
2022/07/18 08:09:17;;;;;;;3.45;1.58;;;23.80;99.90;;;;;;5077025;28;20028;-64
2022/07/18 08:11:42;;;;;;;5.90;2.03;;;23.80;99.90;;;;;;5082123;28;20033;-63
2022/07/18 08:14:08;;;;;;;7.45;1.88;;;24.00;99.90;;;;;;5083395;28;20406;-68
2022/07/18 08:16:34;;;;;;;5.15;2.00;;;24.00;99.90;;;;;;5066364;28;20087;-64
2022/07/18 08:19:00;;;;;;;4.40;1.70;;;24.00;99.90;;;;;;5083523;28;20361;-65
2022/07/18 08:21:26;;;;;;;4.45;1.70;;;24.20;99.90;;;;;;5083349;28;20418;-64
2022/07/18 08:23:52;;;;;;;4.93;2.00;;;24.10;99.90;;;;;;5082563;28;20079;-63
2022/07/18 08:26:17;;;;;;;5.47;1.90;;;24.20;99.90;;;;;;5083678;28;20388;-63
2022/07/18 08:28:43;;;;;;;5.25;1.67;;;24.30;99.90;;;;;;5083349;28;20344;-64
2022/07/18 08:31:10;;;;;;;3.00;1.77;;;24.30;99.90;;;;;;5083080;28;20029;-63
2022/07/18 08:33:36;;;;;;;6.20;1.73;;;24.30;99.90;;;;;;5082534;28;20111;-65
2022/07/18 08:36:01;;;;;;;5.43;1.58;;;24.40;99.90;;;;;;5083177;28;20063;-63
2022/07/18 08:38:27;;;;;;;3.33;1.92;;;24.40;99.90;;;;;;5083388;28;20094;-64
2022/07/18 08:40:54;;;;;;;4.93;2.05;;;24.60;99.90;;;;;;5083643;28;20050;-63
2022/07/18 08:43:20;;;;;;;5.85;1.75;;;25.00;99.90;;;;;;5083189;28;20035;-64
2022/07/18 08:45:47;;;;;;;4.93;1.70;;;25.00;99.90;;;;;;5083018;28;20040;-63
2022/07/18 08:48:16;;;;;;;6.05;1.52;;;25.00;99.90;;;;;;5083135;28;20024;-64
2022/07/18 08:50:47;;;;;;;3.90;1.33;;;25.00;99.90;;;;;;5083117;28;20033;-63
2022/07/18 08:53:14;;;;;;;6.40;1.70;;;25.00;99.90;;;;;;5083077;28;20117;-64
2022/07/18 08:55:40;;;;;;;3.08;1.83;;;25.10;99.90;;;;;;5065654;28;20052;-63
2022/07/18 08:58:06;;;;;;;6.30;1.63;;;25.20;99.90;;;;;;5082983;28;20430;-63
2022/07/18 09:00:34;;;;;;;7.15;1.83;;;25.30;99.90;;;;;;5083049;28;20389;-63
2022/07/18 09:03:03;;;;;;;7.85;1.70;;;25.30;99.90;;;;;;5082948;28;20112;-64
2022/07/18 09:05:31;;;;;;;3.28;1.67;;;25.40;99.90;;;;;;5082285;28;20424;-63
2022/07/18 09:08:17;;;;;;;3.67;1.48;;;25.70;99.90;;;;;;5083045;28;20411;-64
2022/07/18 09:10:50;;;;;;;4.55;1.60;;;25.90;99.90;;;;;;5082896;28;20039;-63
2022/07/18 09:13:21;;;;;;;3.80;1.60;;;26.20;99.90;;;;;;5082857;28;20027;-64
2022/07/18 09:16:08;;;;;;;2.58;1.52;;;26.50;99.90;;;;;;5083493;28;20103;-64
2022/07/18 09:18:53;;;;;;;2.20;1.52;;;26.60;99.90;;;;;;5082824;28;20400;-64
2022/07/18 09:21:21;;;;;;;5.45;1.63;;;26.40;99.90;;;;;;5082679;28;20324;-64
2022/07/18 09:23:52;;;;;;;2.20;1.40;;;26.40;99.90;;;;;;5078800;28;20020;-63
2022/07/18 09:26:39;;;;;;;3.35;1.88;;;26.50;99.90;;;;;;5079402;28;20060;-64
2022/07/18 09:29:04;;;;;;;4.05;1.40;;;26.80;99.90;;;;;;5079784;28;20060;-63
2022/07/18 09:31:31;;;;;;;2.22;1.15;;;26.90;99.90;;;;;;5079457;28;20092;-62
2022/07/18 09:33:59;;;;;;;3.47;1.58;;;27.20;99.90;;;;;;5079479;28;20043;-64
2022/07/18 09:36:26;;;;;;;2.90;1.33;;;27.30;99.90;;;;;;5079798;28;20094;-62
2022/07/18 09:38:52;;;;;;;2.08;1.20;;;27.20;99.90;;;;;;5061963;28;20036;-65
2022/07/18 09:41:32;;;;;;;2.80;1.20;;;27.30;99.90;;;;;;5078522;28;20046;-64
2022/07/18 09:43:58;;;;;;;3.95;1.50;;;27.30;99.90;;;;;;5079282;28;20054;-62
2022/07/18 09:46:25;;;;;;;2.42;1.33;;;27.30;99.90;;;;;;5079120;28;20086;-63
2022/07/18 09:49:10;;;;;;;2.83;1.50;;;27.40;99.90;;;;;;5078542;28;20059;-62
2022/07/18 09:51:36;;;;;;;1.75;1.10;;;27.90;99.90;;;;;;5079121;28;20439;-62
2022/07/18 09:54:03;;;;;;;2.40;1.48;;;28.10;99.20;;;;;;5078320;28;20358;-63
2022/07/18 09:56:33;;;;;;;4.72;1.20;;;28.00;99.40;;;;;;5078832;28;20048;-67
2022/07/18 09:58:59;;;;;;;5.65;1.40;;;28.00;99.40;;;;;;5079400;28;20032;-64
2022/07/18 10:01:25;;;;;;;1.92;1.00;;;27.70;98.60;;;;;;5078910;28;20029;-65
2022/07/18 10:03:51;;;;;;;2.72;1.33;;;27.80;98.20;;;;;;5078120;28;20047;-66
2022/07/18 10:06:18;;;;;;;3.88;1.15;;;27.90;98.40;;;;;;5078025;28;20404;-64
2022/07/18 10:08:44;;;;;;;4.28;1.30;;;27.90;98.20;;;;;;5078839;28;20362;-63
2022/07/18 10:11:10;;;;;;;2.47;1.40;;;27.90;98.50;;;;;;5077939;28;20392;-64
2022/07/18 10:13:37;;;;;;;3.13;1.13;;;28.00;98.40;;;;;;5078650;28;20032;-64
2022/07/18 10:16:04;;;;;;;4.32;1.35;;;28.10;97.20;;;;;;5061213;28;20052;-64
2022/07/18 10:18:32;;;;;;;2.38;1.45;;;28.30;97.40;;;;;;5078274;28;20032;-65
2022/07/18 10:21:02;;;;;;;3.15;1.10;;;28.10;96.10;;;;;;5078637;28;20025;-64
2022/07/18 10:23:38;;;;;;;2.28;1.30;;;28.10;96.30;;;;;;5078765;28;20079;-66
2022/07/18 10:26:17;;;;;;;2.90;1.20;;;28.20;96.70;;;;;;5078373;28;20063;-64
2022/07/18 10:28:55;;;;;;;4.88;1.42;;;28.60;96.10;;;;;;5078465;28;20040;-67
2022/07/18 10:31:59;;;;;;;4.95;1.20;;;28.80;94.10;;;;;;5077643;28;20411;-65
2022/07/18 10:34:39;;;;;;;2.00;1.23;;;28.60;94.90;;;;;;5078168;28;20056;-63
2022/07/18 10:37:06;;;;;;;3.25;1.35;;;28.60;95.40;;;;;;5078281;28;20115;-66
2022/07/18 10:39:35;;;;;;;2.50;1.30;;;29.10;94.40;;;;;;5078201;28;20034;-64
2022/07/18 10:42:01;;;;;;;4.15;1.70;;;29.20;92.60;;;;;;5078481;28;20303;-66
2022/07/18 10:44:29;;;;;;;5.50;1.13;;;29.40;92.80;;;;;;5060708;28;20028;-65
2022/07/18 10:47:17;;;;;;;3.25;1.10;;;29.50;92.20;;;;;;5078211;28;20455;-65
2022/07/18 10:49:52;;;;;;;2.15;1.15;;;30.00;92.20;;;;;;5078082;28;20043;-65
2022/07/18 10:52:33;;;;;;;2.60;1.30;;;30.50;90.30;;;;;;5077897;28;20028;-66
2022/07/18 10:55:17;;;;;;;4.07;1.23;;;30.20;90.30;;;;;;5078098;28;20292;-66
2022/07/18 10:57:49;;;;;;;3.22;1.15;;;29.90;90.40;;;;;;5077643;28;20045;-65
2022/07/18 11:00:22;;;;;;;5.22;1.30;;;30.00;90.50;;;;;;5077642;28;20107;-66
2022/07/18 11:03:00;;;;;;;1.38;1.00;;;30.30;90.30;;;;;;5076969;28;20396;-63
2022/07/18 11:05:26;;;;;;;3.47;1.10;;;30.40;86.80;;;;;;5045561;28;20044;-66
2022/07/18 11:08:01;;;;;;;4.40;1.40;;;31.00;83.40;;;;;;5077587;28;20082;-63
2022/07/18 11:10:46;;;;;;;1.40;1.10;;;31.70;81.70;;;;;;5077633;28;20024;-64
2022/07/18 11:13:32;;;;;;;3.83;1.10;;;32.60;77.50;;;;;;5077454;28;20036;-64
2022/07/18 11:16:09;;;;;;;3.10;1.10;;;33.60;72.70;;;;;;5078092;28;20110;-65
2022/07/18 11:18:54;;;;;;;2.10;1.30;;;34.20;71.30;;;;;;5076809;28;20059;-65
2022/07/18 11:21:24;;;;;;;1.48;1.02;;;35.30;65.90;;;;;;5077236;28;20058;-64
2022/07/18 11:24:14;;;;;;;3.50;0.90;;;34.90;63.80;;;;;;5077645;28;20037;-68
2022/07/18 11:26:46;;;;;;;3.40;1.02;;;35.10;61.30;;;;;;5076552;28;20033;-67
2022/07/18 11:29:14;;;;;;;3.22;1.17;;;35.40;59.90;;;;;;5077279;28;20103;-65
2022/07/18 11:31:50;;;;;;;3.45;1.10;;;35.10;60.10;;;;;;5077148;28;20029;-66
2022/07/18 11:34:16;;;;;;;1.63;1.20;;;34.60;59.40;;;;;;5077198;28;20024;-65
2022/07/18 11:36:45;;;;;;;1.85;1.05;;;35.80;59.30;;;;;;5077203;28;20047;-67
2022/07/18 11:39:13;;;;;;;2.00;1.10;;;37.00;55.80;;;;;;5077337;28;20078;-66
2022/07/18 11:41:40;;;;;;;1.63;0.80;;;37.40;53.50;;;;;;5077592;28;20055;-67
2022/07/18 11:44:39;;;;;;;3.45;1.20;;;37.80;51.30;;;;;;5076981;28;20388;-65
2022/07/18 11:47:07;;;;;;;1.92;1.00;;;37.30;51.60;;;;;;5075735;28;20040;-65
2022/07/18 11:49:35;;;;;;;1.73;1.10;;;37.20;50.80;;;;;;5059631;28;20028;-66
2022/07/18 11:52:01;;;;;;;2.22;0.93;;;37.50;52.20;;;;;;5076948;28;20017;-65
2022/07/18 11:54:28;;;;;;;4.45;1.20;;;37.40;50.30;;;;;;5076970;28;20300;-66
2022/07/18 11:56:55;;;;;;;2.38;1.10;;;37.10;50.50;;;;;;5076766;28;20064;-65
2022/07/18 11:59:34;;;;;;;1.10;1.00;;;37.30;50.00;;;;;;5076907;28;20107;-65
2022/07/18 12:02:01;;;;;;;1.55;1.00;;;38.60;47.40;;;;;;5077213;28;20032;-65
2022/07/18 12:04:27;;;;;;;1.30;1.00;;;38.20;47.50;;;;;;5076886;28;20101;-67
2022/07/18 12:07:25;;;;;;;2.42;1.00;;;39.80;46.80;;;;;;5077134;28;20024;-65
2022/07/18 12:09:52;;;;;;;3.53;1.13;;;39.80;45.40;;;;;;5076894;28;20032;-67
2022/07/18 12:12:20;;;;;;;4.30;1.17;;;36.80;47.40;;;;;;5077001;28;20036;-65
2022/07/18 12:15:00;;;;;;;2.88;1.20;;;37.60;47.80;;;;;;5076750;28;20063;-65
2022/07/18 12:17:28;;;;;;;1.55;1.10;;;39.40;43.80;;;;;;5075986;28;20041;-65
2022/07/18 12:20:10;;;;;;;2.78;1.00;;;39.60;44.20;;;;;;5076764;28;20332;-65
2022/07/18 12:22:35;;;;;;;2.75;1.20;;;41.30;42.70;;;;;;5076719;28;20293;-67
2022/07/18 12:25:01;;;;;;;2.63;1.05;;;41.70;40.50;;;;;;5076652;28;20025;-66
2022/07/18 12:27:33;;;;;;;1.83;1.20;;;41.80;40.80;;;;;;5076607;28;20037;-65
2022/07/18 12:30:03;;;;;;;;;;;41.20;41.30;;;;;;5077020;28;20028;-67
2022/07/18 12:32:52;;;;;;;3.90;1.20;;;41.40;40.50;;;;;;5076837;28;19978;-66
2022/07/18 12:35:32;;;;;;;4.45;1.05;;;40.40;40.80;;;;;;5076556;28;20044;-68
2022/07/18 12:38:07;;;;;;;2.88;1.10;;;41.10;38.90;;;;;;5076355;28;20036;-68
2022/07/18 12:40:51;;;;;;;1.45;1.05;;;41.10;40.40;;;;;;5075887;28;20115;-67
2022/07/18 12:43:29;;;;;;;2.55;1.00;;;42.10;39.60;;;;;;5075766;28;20048;-65
2022/07/18 12:45:56;;;;;;;2.60;0.90;;;43.30;38.30;;;;;;5076449;28;20098;-67
2022/07/18 12:48:22;;;;;;;6.07;1.20;;;44.40;36.80;;;;;;5076369;28;20040;-66
2022/07/18 12:51:02;;;;;;;1.40;1.30;;;44.80;34.80;;;;;;5076469;28;20052;-65
2022/07/18 12:53:30;;;;;;;2.78;1.00;;;45.50;34.60;;;;;;5076618;28;20025;-66
2022/07/18 12:55:56;;;;;;;1.73;1.00;;;45.30;34.00;;;;;;5076170;28;20109;-67
2022/07/18 12:58:21;;;;;;;2.80;1.23;;;43.50;34.80;;;;;;5078503;28;20101;-69